createdAt,value
2019-05-09T00:01:27.715Z,13.60
2019-05-09T00:03:57.514Z,13.60
2019-05-09T00:06:27.315Z,13.60
2019-05-09T00:08:57.101Z,13.60
2019-05-09T00:11:27.245Z,13.60
2019-05-09T00:13:57.046Z,13.60
2019-05-09T00:16:26.842Z,13.60
2019-05-09T00:18:56.993Z,13.60
2019-05-09T00:21:28.428Z,13.60
2019-05-09T00:23:58.221Z,13.50
2019-05-09T00:26:28.093Z,13.50
2019-05-09T00:28:59.592Z,13.50
2019-05-09T00:31:39.897Z,13.50
2019-05-09T00:34:14.258Z,13.60
2019-05-09T00:36:43.872Z,13.60
2019-05-09T00:39:13.640Z,13.60
2019-05-09T00:41:43.610Z,13.50
2019-05-09T00:44:18.034Z,13.50
2019-05-09T00:46:49.758Z,13.50
2019-05-09T00:49:23.411Z,13.50
2019-05-09T00:51:54.050Z,13.50
2019-05-09T00:54:24.171Z,13.50
2019-05-09T00:56:54.243Z,13.50
2019-05-09T00:59:24.228Z,13.50
2019-05-09T01:01:54.488Z,13.50
2019-05-09T01:04:24.358Z,13.50
2019-05-09T01:06:54.219Z,13.50
2019-05-09T01:09:24.285Z,13.50
2019-05-09T01:11:54.269Z,13.40
2019-05-09T01:14:24.060Z,13.40
2019-05-09T01:16:53.868Z,13.40
2019-05-09T01:19:23.664Z,13.40
2019-05-09T01:21:54.217Z,13.40
2019-05-09T01:24:24.160Z,13.40
2019-05-09T01:26:54.293Z,13.40
2019-05-09T01:29:24.265Z,13.50
2019-05-09T01:31:55.700Z,13.50
2019-05-09T01:34:27.164Z,13.50
2019-05-09T01:37:14.127Z,13.50
2019-05-09T01:39:44.128Z,13.50
2019-05-09T01:42:13.973Z,13.50
2019-05-09T01:44:44.138Z,13.50
2019-05-09T01:47:14.219Z,13.50
2019-05-09T01:49:44.140Z,13.50
2019-05-09T01:52:13.956Z,13.50
2019-05-09T01:54:46.345Z,13.60
2019-05-09T01:57:16.281Z,13.60
2019-05-09T01:59:46.080Z,13.60
2019-05-09T02:02:15.949Z,13.60
2019-05-09T02:04:45.750Z,13.60
2019-05-09T02:07:15.540Z,13.60
2019-05-09T02:09:45.336Z,13.60
2019-05-09T02:12:15.276Z,13.50
2019-05-09T02:14:55.681Z,13.50
2019-05-09T02:17:27.125Z,13.50
2019-05-09T02:19:56.999Z,13.50
2019-05-09T02:22:36.379Z,13.50
2019-05-09T02:25:09.564Z,13.60
2019-05-09T02:27:39.434Z,13.50
2019-05-09T02:30:10.540Z,13.50
2019-05-09T02:32:40.708Z,13.50
2019-05-09T02:35:11.978Z,13.50
2019-05-09T02:37:41.810Z,13.40
2019-05-09T02:40:11.769Z,13.40
2019-05-09T02:42:41.574Z,13.40
2019-05-09T02:45:11.364Z,13.40
2019-05-09T02:47:42.859Z,13.30
2019-05-09T02:50:13.086Z,13.40
2019-05-09T02:52:42.880Z,13.40
2019-05-09T02:55:12.670Z,13.40
2019-05-09T02:57:43.245Z,13.30
2019-05-09T03:00:20.148Z,13.40
2019-05-09T03:02:59.225Z,13.40
2019-05-09T03:05:29.662Z,13.40
2019-05-09T03:07:59.115Z,13.30
2019-05-09T03:10:29.475Z,13.30
2019-05-09T03:12:59.684Z,13.30
2019-05-09T03:15:29.646Z,13.30
2019-05-09T03:18:01.139Z,13.40
2019-05-09T03:20:32.572Z,13.40
2019-05-09T03:23:02.383Z,13.40
2019-05-09T03:25:32.731Z,13.40
2019-05-09T03:28:09.603Z,13.40
2019-05-09T03:30:50.332Z,13.40
2019-05-09T03:33:20.461Z,13.40
2019-05-09T03:35:50.661Z,13.30
2019-05-09T03:38:20.457Z,13.30
2019-05-09T03:40:50.251Z,13.30
2019-05-09T03:43:20.406Z,13.30
2019-05-09T03:45:58.544Z,13.30
2019-05-09T03:48:33.900Z,13.30
2019-05-09T03:51:03.697Z,13.30
2019-05-09T03:53:33.492Z,13.30
2019-05-09T03:56:04.996Z,13.20
2019-05-09T03:58:34.796Z,13.30
2019-05-09T04:01:05.056Z,13.20
2019-05-09T04:03:34.853Z,13.30
2019-05-09T04:06:04.655Z,13.30
2019-05-09T04:08:34.445Z,13.40
2019-05-09T04:11:04.240Z,13.30
2019-05-09T04:13:35.679Z,13.20
2019-05-09T04:16:07.438Z,13.20
2019-05-09T04:18:40.293Z,13.20
2019-05-09T04:21:09.966Z,13.10
2019-05-09T04:23:39.832Z,13.10
2019-05-09T04:26:11.344Z,13.20
2019-05-09T04:28:41.501Z,13.20
2019-05-09T04:31:11.300Z,13.20
2019-05-09T04:33:41.092Z,13.20
2019-05-09T04:36:10.893Z,13.20
2019-05-09T04:38:40.680Z,13.10
2019-05-09T04:41:10.481Z,13.10
2019-05-09T04:43:41.921Z,13.10
2019-05-09T04:46:13.110Z,13.10
2019-05-09T04:48:43.280Z,13.20
2019-05-09T04:51:13.077Z,13.20
2019-05-09T04:53:43.174Z,13.20
2019-05-09T04:56:27.864Z,13.10
2019-05-09T04:58:58.825Z,13.20
2019-05-09T05:01:33.353Z,13.20
2019-05-09T05:04:03.183Z,13.20
2019-05-09T05:06:33.001Z,13.20
2019-05-09T05:09:02.821Z,13.20
2019-05-09T05:11:32.676Z,13.20
2019-05-09T05:14:02.603Z,13.30
2019-05-09T05:16:32.968Z,13.30
2019-05-09T05:19:02.758Z,13.30
2019-05-09T05:21:33.616Z,13.30
2019-05-09T05:24:05.053Z,13.30
2019-05-09T05:26:34.858Z,13.30
2019-05-09T05:29:04.653Z,13.30
2019-05-09T05:31:34.449Z,13.30
2019-05-09T05:34:14.953Z,13.30
2019-05-09T05:36:44.746Z,13.30
2019-05-09T05:39:14.853Z,13.40
2019-05-09T05:41:44.645Z,13.30
2019-05-09T05:44:14.449Z,13.40
2019-05-09T05:46:50.833Z,13.40
2019-05-09T05:49:20.336Z,13.40
2019-05-09T05:51:50.209Z,13.40
2019-05-09T05:54:20.645Z,13.30
2019-05-09T05:56:50.418Z,13.30
2019-05-09T05:59:21.280Z,13.40
2019-05-09T06:01:51.088Z,13.30
2019-05-09T06:04:20.885Z,13.40
2019-05-09T06:06:50.709Z,13.40
2019-05-09T06:09:20.505Z,13.40
2019-05-09T06:11:50.314Z,13.40
2019-05-09T06:14:20.110Z,13.50
2019-05-09T06:16:49.910Z,13.60
2019-05-09T06:19:19.780Z,13.60
2019-05-09T06:21:52.412Z,13.60
2019-05-09T06:24:21.834Z,13.60
2019-05-09T06:26:52.040Z,13.70
2019-05-09T06:29:21.836Z,13.70
2019-05-09T06:31:51.697Z,13.80
2019-05-09T06:34:21.499Z,13.80
2019-05-09T06:36:51.366Z,13.80
2019-05-09T06:39:21.523Z,13.80
2019-05-09T06:41:51.389Z,13.90
2019-05-09T06:44:37.942Z,14.00
2019-05-09T06:47:09.498Z,14.10
2019-05-09T06:49:40.903Z,14.20
2019-05-09T06:52:10.706Z,14.20
2019-05-09T06:54:41.823Z,14.30
2019-05-09T06:57:11.777Z,14.40
2019-05-09T06:59:41.653Z,14.40
2019-05-09T07:02:17.658Z,14.50
2019-05-09T07:04:49.104Z,14.50
2019-05-09T07:07:28.042Z,14.60
2019-05-09T07:09:59.696Z,14.50
2019-05-09T07:12:29.495Z,14.60
2019-05-09T07:14:59.867Z,14.60
2019-05-09T07:17:31.871Z,14.60
2019-05-09T07:20:01.274Z,14.70
2019-05-09T07:22:32.786Z,14.70
2019-05-09T07:25:10.775Z,14.80
2019-05-09T07:27:39.576Z,14.80
2019-05-09T07:30:24.009Z,14.70
2019-05-09T07:32:57.805Z,14.70
2019-05-09T07:35:27.812Z,14.80
2019-05-09T07:37:58.015Z,14.80
2019-05-09T07:40:30.420Z,14.80
2019-05-09T07:42:59.312Z,14.80
2019-05-09T07:45:29.102Z,14.80
2019-05-09T07:48:00.149Z,14.80
2019-05-09T07:50:29.936Z,14.80
2019-05-09T07:52:59.802Z,14.90
2019-05-09T07:55:29.895Z,14.90
2019-05-09T07:57:59.687Z,14.90
2019-05-09T08:00:33.918Z,14.90
2019-05-09T08:03:03.851Z,14.90
2019-05-09T08:05:33.997Z,15.00
2019-05-09T08:08:07.976Z,15.00
2019-05-09T08:10:39.266Z,15.10
2019-05-09T08:13:12.028Z,15.10
2019-05-09T08:15:41.072Z,15.20
2019-05-09T08:18:10.851Z,15.20
2019-05-09T08:20:40.847Z,15.20
2019-05-09T08:23:11.729Z,15.30
2019-05-09T08:25:41.542Z,15.30
2019-05-09T08:28:11.420Z,15.30
2019-05-09T08:30:41.254Z,15.30
2019-05-09T08:33:11.052Z,15.40
2019-05-09T08:35:40.851Z,15.30
2019-05-09T08:38:11.729Z,15.40
2019-05-09T08:40:41.524Z,15.40
2019-05-09T08:43:11.357Z,15.40
2019-05-09T08:45:41.147Z,15.50
2019-05-09T08:48:10.949Z,15.50
2019-05-09T08:50:42.384Z,15.60
2019-05-09T08:53:12.176Z,15.70
2019-05-09T08:55:41.996Z,15.80
2019-05-09T08:58:11.798Z,15.90
2019-05-09T09:00:41.684Z,16.00
2019-05-09T09:03:11.540Z,16.00
2019-05-09T09:05:43.345Z,16.00
2019-05-09T09:08:13.117Z,16.10
2019-05-09T09:10:42.992Z,16.20
2019-05-09T09:13:12.856Z,16.20
2019-05-09T09:16:14.924Z,16.30
2019-05-09T09:18:14.189Z,16.40
2019-05-09T09:20:44.826Z,16.60
2019-05-09T09:23:14.620Z,16.60
2019-05-09T09:25:44.418Z,16.80
2019-05-09T09:28:14.213Z,16.90
2019-05-09T09:30:44.018Z,17.00
2019-05-09T09:33:14.061Z,17.20
2019-05-09T09:35:43.985Z,17.30
2019-05-09T09:38:13.848Z,17.40
2019-05-09T09:40:43.641Z,17.40
2019-05-09T09:43:13.437Z,17.40
2019-05-09T09:45:43.231Z,17.50
2019-05-09T09:48:13.042Z,17.50
2019-05-09T09:50:42.838Z,17.50
2019-05-09T09:53:13.029Z,17.50
2019-05-09T09:55:42.817Z,17.60
2019-05-09T09:58:12.618Z,17.60
2019-05-09T10:01:03.674Z,17.70
2019-05-09T10:03:34.749Z,17.80
2019-05-09T10:06:04.549Z,17.80
2019-05-09T10:08:34.337Z,17.90
2019-05-09T10:11:04.145Z,17.90
2019-05-09T10:13:34.001Z,18.00
2019-05-09T10:16:28.322Z,18.00
2019-05-09T10:18:47.703Z,18.10
2019-05-09T10:21:27.808Z,18.20
2019-05-09T10:23:57.868Z,18.20
2019-05-09T10:26:28.354Z,18.30
2019-05-09T10:28:58.370Z,18.40
2019-05-09T10:31:28.382Z,18.50
2019-05-09T10:33:58.326Z,18.50
2019-05-09T10:36:28.129Z,18.50
2019-05-09T10:38:58.996Z,18.60
2019-05-09T10:41:29.069Z,18.60
2019-05-09T10:44:00.583Z,18.60
2019-05-09T10:46:56.764Z,18.70
2019-05-09T10:49:20.832Z,18.80
2019-05-09T10:51:50.719Z,18.80
2019-05-09T10:54:20.573Z,18.90
2019-05-09T10:56:50.379Z,18.90
2019-05-09T10:59:21.828Z,19.00
2019-05-09T11:01:51.612Z,19.00
2019-05-09T11:04:21.493Z,19.00
2019-05-09T11:06:51.302Z,19.00
2019-05-09T11:09:21.175Z,19.10
2019-05-09T11:11:50.973Z,19.00
2019-05-09T11:14:32.558Z,19.00
2019-05-09T11:17:06.878Z,19.00
2019-05-09T11:19:23.613Z,19.00
2019-05-09T11:21:53.413Z,19.00
2019-05-09T11:24:37.034Z,19.10
2019-05-09T11:26:54.639Z,19.00
2019-05-09T11:29:24.436Z,19.10
2019-05-09T11:31:54.228Z,19.10
2019-05-09T11:34:24.061Z,19.10
2019-05-09T11:36:53.953Z,19.10
2019-05-09T11:39:35.742Z,19.10
2019-05-09T11:41:55.170Z,19.10
2019-05-09T11:44:27.148Z,19.10
2019-05-09T11:46:58.233Z,19.10
2019-05-09T11:49:29.576Z,19.10
2019-05-09T11:51:59.216Z,19.10
2019-05-09T11:54:29.001Z,19.20
2019-05-09T11:56:58.796Z,19.20
2019-05-09T11:59:28.809Z,19.20
2019-05-09T12:01:58.861Z,19.20
2019-05-09T12:04:28.853Z,19.20
2019-05-09T12:06:58.653Z,19.20
2019-05-09T12:09:29.001Z,19.10
2019-05-09T12:11:59.264Z,19.20
2019-05-09T12:14:29.449Z,19.20
2019-05-09T12:16:59.254Z,19.20
2019-05-09T12:19:29.649Z,19.20
2019-05-09T12:21:59.589Z,19.20
2019-05-09T12:24:29.713Z,19.20
2019-05-09T12:27:02.904Z,19.20
2019-05-09T12:29:31.142Z,19.20
2019-05-09T12:32:00.946Z,19.20
2019-05-09T12:34:30.744Z,19.10
2019-05-09T12:37:00.541Z,19.20
2019-05-09T12:39:30.336Z,19.10
2019-05-09T12:42:00.146Z,19.10
2019-05-09T12:44:31.538Z,19.10
2019-05-09T12:47:01.333Z,19.10
2019-05-09T12:49:31.129Z,19.20
2019-05-09T12:52:01.251Z,19.20
2019-05-09T12:54:31.033Z,19.20
2019-05-09T12:57:00.869Z,19.20
2019-05-09T12:59:45.550Z,19.30
2019-05-09T13:02:02.335Z,19.30
2019-05-09T13:04:32.197Z,19.30
2019-05-09T13:07:02.080Z,19.40
2019-05-09T13:09:31.920Z,19.40
2019-05-09T13:12:01.792Z,19.40
2019-05-09T13:14:31.653Z,19.40
2019-05-09T13:17:12.176Z,19.50
2019-05-09T13:19:47.937Z,19.50
2019-05-09T13:22:18.485Z,19.50
2019-05-09T13:24:48.495Z,19.50
2019-05-09T13:27:18.942Z,19.50
2019-05-09T13:29:49.581Z,19.50
2019-05-09T13:32:20.877Z,19.40
2019-05-09T13:34:50.683Z,19.40
2019-05-09T13:37:20.822Z,19.40
2019-05-09T13:39:50.649Z,19.40
2019-05-09T13:42:21.521Z,19.40
2019-05-09T13:44:51.321Z,19.40
2019-05-09T13:47:21.126Z,19.40
2019-05-09T13:49:50.933Z,19.40
2019-05-09T13:52:20.722Z,19.40
2019-05-09T13:54:50.601Z,19.40
2019-05-09T13:57:20.404Z,19.50
2019-05-09T13:59:50.317Z,19.50
2019-05-09T14:02:20.297Z,19.40
2019-05-09T14:04:50.109Z,19.40
2019-05-09T14:07:19.906Z,19.40
2019-05-09T14:09:49.769Z,19.50
2019-05-09T14:12:19.594Z,19.50
2019-05-09T14:14:49.474Z,19.50
2019-05-09T14:17:19.372Z,19.50
2019-05-09T14:19:51.073Z,19.50
2019-05-09T14:22:20.788Z,19.50
2019-05-09T14:24:50.589Z,19.50
2019-05-09T14:27:20.592Z,19.50
2019-05-09T14:29:51.464Z,19.50
2019-05-09T14:32:21.266Z,19.50
2019-05-09T14:34:51.080Z,19.50
2019-05-09T14:37:20.857Z,19.50
2019-05-09T14:39:58.046Z,19.50
2019-05-09T14:42:22.192Z,19.50
2019-05-09T14:44:52.047Z,19.60
2019-05-09T14:47:21.852Z,19.60
2019-05-09T14:49:51.805Z,19.60
2019-05-09T14:52:21.673Z,19.50
2019-05-09T14:54:51.490Z,19.60
2019-05-09T14:57:21.437Z,19.60
2019-05-09T14:59:51.236Z,19.60
2019-05-09T15:02:21.113Z,19.50
2019-05-09T15:04:50.978Z,19.60
2019-05-09T15:07:20.773Z,19.60
2019-05-09T15:09:50.934Z,19.60
2019-05-09T15:12:20.797Z,19.60
2019-05-09T15:14:50.600Z,19.60
2019-05-09T15:17:20.406Z,19.50
2019-05-09T15:19:59.690Z,19.50
2019-05-09T15:22:21.660Z,19.60
2019-05-09T15:24:53.492Z,19.60
2019-05-09T15:27:23.360Z,19.60
2019-05-09T15:29:53.562Z,19.60
2019-05-09T15:32:23.356Z,19.60
2019-05-09T15:34:53.572Z,19.60
2019-05-09T15:37:23.453Z,19.60
2019-05-09T15:39:53.251Z,19.60
2019-05-09T15:42:23.053Z,19.60
2019-05-09T15:44:52.989Z,19.60
2019-05-09T15:47:32.980Z,19.60
2019-05-09T15:50:16.517Z,19.70
2019-05-09T15:52:34.962Z,19.60
2019-05-09T15:55:09.159Z,19.70
2019-05-09T15:57:37.893Z,19.70
2019-05-09T16:00:09.790Z,19.70
2019-05-09T16:02:42.501Z,19.70
2019-05-09T16:05:12.393Z,19.70
2019-05-09T16:07:42.729Z,19.70
2019-05-09T16:10:12.540Z,19.70
2019-05-09T16:12:42.435Z,19.60
2019-05-09T16:15:12.348Z,19.70
2019-05-09T16:17:42.603Z,19.70
2019-05-09T16:20:12.380Z,19.60
2019-05-09T16:22:42.331Z,19.60
2019-05-09T16:25:12.098Z,19.60
2019-05-09T16:27:41.961Z,19.70
2019-05-09T16:30:11.906Z,19.60
2019-05-09T16:32:41.861Z,19.60
2019-05-09T16:35:11.936Z,19.70
2019-05-09T16:38:05.885Z,19.60
2019-05-09T16:40:13.609Z,19.70
2019-05-09T16:42:43.689Z,19.60
2019-05-09T16:45:13.809Z,19.60
2019-05-09T16:47:43.611Z,19.60
2019-05-09T16:50:13.412Z,19.60
2019-05-09T16:52:43.865Z,19.60
2019-05-09T16:55:18.601Z,19.60
2019-05-09T16:57:48.409Z,19.60
2019-05-09T17:00:32.560Z,19.60
2019-05-09T17:03:02.661Z,19.60
2019-05-09T17:05:32.462Z,19.60
2019-05-09T17:08:02.552Z,19.50
2019-05-09T17:10:32.721Z,19.50
2019-05-09T17:13:02.833Z,19.50
2019-05-09T17:15:32.639Z,19.50
2019-05-09T17:18:02.439Z,19.60
2019-05-09T17:20:51.945Z,19.50
2019-05-09T17:23:23.386Z,19.50
2019-05-09T17:25:53.462Z,19.50
2019-05-09T17:28:23.268Z,19.40
2019-05-09T17:30:53.139Z,19.40
2019-05-09T17:33:22.931Z,19.40
2019-05-09T17:35:53.517Z,19.40
2019-05-09T17:38:23.315Z,19.40
2019-05-09T17:40:53.120Z,19.40
2019-05-09T17:43:22.906Z,19.40
2019-05-09T17:45:55.037Z,19.40
2019-05-09T17:48:28.253Z,19.40
2019-05-09T17:50:57.872Z,19.30
2019-05-09T17:53:28.871Z,19.30
2019-05-09T17:55:59.404Z,19.30
2019-05-09T17:58:32.990Z,19.30
2019-05-09T18:01:01.590Z,19.20
2019-05-09T18:03:31.829Z,19.20
2019-05-09T18:06:01.964Z,19.30
2019-05-09T18:08:31.828Z,19.20
2019-05-09T18:11:01.693Z,19.20
2019-05-09T18:13:32.226Z,19.10
2019-05-09T18:16:02.636Z,19.00
2019-05-09T18:18:32.500Z,19.00
2019-05-09T18:21:02.413Z,18.90
2019-05-09T18:23:32.272Z,18.90
2019-05-09T18:26:02.066Z,18.90
2019-05-09T18:28:31.871Z,18.80
2019-05-09T18:31:02.159Z,18.70
2019-05-09T18:33:33.621Z,18.70
2019-05-09T18:36:03.496Z,18.60
2019-05-09T18:38:33.837Z,18.50
2019-05-09T18:41:07.051Z,18.50
2019-05-09T18:43:35.127Z,18.50
2019-05-09T18:46:05.061Z,18.40
2019-05-09T18:48:34.853Z,18.20
2019-05-09T18:51:05.721Z,18.20
2019-05-09T18:53:35.553Z,18.10
2019-05-09T18:56:05.371Z,18.10
2019-05-09T18:58:36.632Z,18.00
2019-05-09T19:01:06.531Z,17.90
2019-05-09T19:03:36.775Z,17.90
2019-05-09T19:06:06.645Z,17.90
2019-05-09T19:08:36.513Z,17.90
2019-05-09T19:11:06.389Z,17.90
2019-05-09T19:13:36.341Z,17.80
2019-05-09T19:16:07.857Z,17.60
2019-05-09T19:18:51.702Z,17.60
2019-05-09T19:21:26.939Z,17.40
2019-05-09T19:23:56.784Z,17.30
2019-05-09T19:26:39.008Z,17.10
2019-05-09T19:32:50.926Z,17.00
2019-05-09T19:35:20.824Z,16.90
2019-05-09T19:37:51.761Z,16.80
2019-05-09T19:40:21.881Z,16.70
2019-05-09T19:42:51.795Z,16.70
2019-05-09T19:45:21.710Z,16.60
2019-05-09T19:47:51.565Z,16.50
2019-05-09T19:50:21.526Z,16.50
2019-05-09T19:52:51.383Z,16.40
2019-05-09T19:55:21.267Z,16.40
2019-05-09T19:57:51.183Z,16.40
2019-05-09T20:00:21.097Z,16.40
2019-05-09T20:02:51.422Z,16.30
2019-05-09T20:05:21.292Z,16.40
2019-05-09T20:07:51.147Z,16.30
2019-05-09T20:10:22.659Z,16.30
2019-05-09T20:13:12.289Z,16.20
2019-05-09T20:15:42.197Z,16.20
2019-05-09T20:18:12.058Z,16.10
2019-05-09T20:20:41.905Z,16.20
2019-05-09T20:23:12.165Z,16.10
2019-05-09T20:25:42.030Z,16.10
2019-05-09T20:28:11.890Z,16.10
2019-05-09T20:30:42.179Z,16.10
2019-05-09T20:33:12.072Z,16.10
2019-05-09T20:35:41.936Z,16.10
2019-05-09T20:38:12.572Z,16.10
2019-05-09T20:40:42.676Z,16.00
2019-05-09T20:43:13.054Z,16.00
2019-05-09T20:45:43.158Z,16.00
2019-05-09T20:48:13.198Z,16.00
2019-05-09T20:50:44.611Z,15.90
2019-05-09T20:53:14.961Z,15.90
2019-05-09T20:55:46.166Z,15.80
2019-05-09T20:58:16.215Z,15.80
2019-05-09T21:00:46.333Z,15.80
2019-05-09T21:03:16.450Z,15.80
2019-05-09T21:05:47.558Z,15.70
2019-05-09T21:08:17.665Z,15.70
2019-05-09T21:10:49.337Z,15.70
2019-05-09T21:13:19.778Z,15.70
2019-05-09T21:15:49.913Z,15.70
2019-05-09T21:18:19.983Z,15.60
2019-05-09T21:20:50.447Z,15.70
2019-05-09T21:23:24.669Z,15.60
2019-05-09T21:25:52.141Z,15.60
2019-05-09T21:28:22.563Z,15.60
2019-05-09T21:30:52.588Z,15.60
2019-05-09T21:33:22.866Z,15.50
2019-05-09T21:35:52.780Z,15.50
2019-05-09T21:38:22.694Z,15.50
2019-05-09T21:40:52.918Z,15.50
2019-05-09T21:43:22.933Z,15.50
2019-05-09T21:45:52.833Z,15.50
2019-05-09T21:48:22.789Z,15.50
2019-05-09T21:50:52.678Z,15.50
2019-05-09T21:53:39.917Z,15.50
2019-05-09T21:55:57.012Z,15.40
2019-05-09T21:58:26.928Z,15.30
2019-05-09T22:00:57.045Z,15.30
2019-05-09T22:03:28.395Z,15.30
2019-05-09T22:05:58.307Z,15.20
2019-05-09T22:08:28.223Z,15.20
2019-05-09T22:10:58.139Z,15.20
2019-05-09T22:13:29.487Z,15.20
2019-05-09T22:15:59.402Z,15.10
2019-05-09T22:18:29.315Z,15.20
2019-05-09T22:20:59.229Z,15.10
2019-05-09T22:23:29.144Z,15.20
2019-05-09T22:25:59.201Z,15.10
2019-05-09T22:28:29.179Z,15.10
2019-05-09T22:30:59.095Z,15.10
2019-05-09T22:33:29.417Z,15.10
2019-05-09T22:36:02.100Z,15.10
2019-05-09T22:38:33.552Z,15.00
2019-05-09T22:41:03.566Z,15.00
2019-05-09T22:43:33.483Z,14.90
2019-05-09T22:46:03.703Z,14.90
2019-05-09T22:48:33.616Z,14.90
2019-05-09T22:51:03.532Z,14.90
2019-05-09T22:53:35.086Z,14.90
2019-05-09T22:56:04.999Z,14.90
2019-05-09T22:58:34.914Z,14.80
2019-05-09T23:01:04.934Z,14.80
2019-05-09T23:03:35.257Z,14.80
2019-05-09T23:06:05.171Z,14.80
2019-05-09T23:08:35.014Z,14.90
2019-05-09T23:11:05.410Z,14.90
2019-05-09T23:13:36.963Z,15.00
2019-05-09T23:16:06.810Z,15.00
2019-05-09T23:18:36.690Z,15.00
2019-05-09T23:21:06.614Z,15.00
2019-05-09T23:23:38.142Z,15.00
2019-05-09T23:26:08.175Z,15.00
2019-05-09T23:28:38.195Z,15.00
2019-05-09T23:31:09.745Z,15.00
2019-05-09T23:33:40.890Z,15.00
2019-05-09T23:36:10.802Z,15.00
2019-05-09T23:38:58.742Z,15.00
2019-05-09T23:41:28.725Z,15.00
2019-05-09T23:43:58.878Z,14.90
2019-05-09T23:46:28.793Z,15.00
2019-05-09T23:48:59.121Z,15.00
2019-05-09T23:51:48.080Z,15.00
2019-05-09T23:54:48.087Z,15.00
2019-05-09T23:57:29.690Z,15.00
